Time;durP1;ratioP1;P1;durP2;ratioP2;P2;SDS_P1;SDS_P2;PMS_P1;PMS_P2;Temp;Humidity;BMP_temperature;BMP_pressure;BME280_temperature;BME280_humidity;BME280_pressure;Samples;Min_cycle;Max_cycle;Signal;HPM_P1;HPM_P2
2023/04/27 00:01:33;;;;;;;13.43;5.55;;;;;;;;;;5007026;28;20188;-73
2023/04/27 00:04:00;;;;;;;9.57;4.63;;;;;;;;;;5006072;28;20054;-73
2023/04/27 00:06:27;;;;;;;12.57;5.25;;;;;;;;;;5006570;28;20050;-73
2023/04/27 00:08:53;;;;;;;8.93;4.32;;;;;;;;;;5006023;28;20050;-73
2023/04/27 00:11:20;;;;;;;8.93;4.30;;;;;;;;;;5006682;28;20086;-73
2023/04/27 00:13:46;;;;;;;8.23;4.20;;;;;;;;;;5006402;28;20762;-73
2023/04/27 00:16:13;;;;;;;9.57;4.43;;;;;;;;;;5006591;28;20498;-73
2023/04/27 00:18:39;;;;;;;11.85;4.57;;;;;;;;;;5005477;28;20125;-73
2023/04/27 00:21:07;;;;;;;8.77;4.28;;;;;;;;;;5005885;28;20108;-72
2023/04/27 00:23:33;;;;;;;8.05;4.10;;;;;;;;;;5007176;28;20085;-73
2023/04/27 00:26:00;;;;;;;10.68;4.32;;;;;;;;;;5006572;28;20050;-73
2023/04/27 00:28:26;;;;;;;8.40;3.90;;;;;;;;;;5006231;28;20061;-73
2023/04/27 00:30:53;;;;;;;11.52;4.15;;;;;;;;;;5005348;28;20058;-72
2023/04/27 00:33:20;;;;;;;9.20;3.58;;;;;;;;;;5004454;28;20050;-73
2023/04/27 00:35:46;;;;;;;7.97;3.70;;;;;;;;;;5005540;28;20054;-73
2023/04/27 00:38:12;;;;;;;8.27;3.85;;;;;;;;;;5006161;28;20050;-73
2023/04/27 00:40:39;;;;;;;9.57;3.90;;;;;;;;;;5006167;28;20146;-73
2023/04/27 00:43:05;;;;;;;10.88;3.90;;;;;;;;;;5009824;28;20084;-72
2023/04/27 00:45:35;;;;;;;7.72;4.40;;;;;;;;;;5005809;28;20072;-73
2023/04/27 00:48:01;;;;;;;8.75;4.40;;;;;;;;;;5005570;28;20051;-73
2023/04/27 00:50:28;;;;;;;10.43;4.22;;;;;;;;;;5007399;28;20547;-73
2023/04/27 00:52:55;;;;;;;10.15;4.45;;;;;;;;;;5005631;28;20120;-72
2023/04/27 00:55:22;;;;;;;9.10;4.05;;;;;;;;;;5004895;28;20053;-73
2023/04/27 00:57:50;;;;;;;9.30;3.97;;;;;;;;;;5003695;28;20541;-73
2023/04/27 01:00:16;;;;;;;11.45;4.45;;;;;;;;;;5003933;28;20065;-73
2023/04/27 01:02:43;;;;;;;7.95;3.88;;;;;;;;;;5004261;28;20472;-72
2023/04/27 01:05:10;;;;;;;8.00;3.70;;;;;;;;;;5004461;28;20763;-73
2023/04/27 01:07:37;;;;;;;10.60;4.05;;;;;;;;;;5004883;28;20190;-72
2023/04/27 01:10:04;;;;;;;12.27;3.97;;;;;;;;;;5003183;28;20056;-73
2023/04/27 01:12:31;;;;;;;12.95;3.65;;;;;;;;;;5003490;28;21012;-72
2023/04/27 01:14:57;;;;;;;7.75;3.60;;;;;;;;;;5003364;28;20054;-73
2023/04/27 01:17:24;;;;;;;10.55;3.90;;;;;;;;;;5003441;28;20626;-73
2023/04/27 01:19:51;;;;;;;9.07;3.67;;;;;;;;;;5004979;28;20576;-73
2023/04/27 01:22:17;;;;;;;7.50;3.70;;;;;;;;;;5003218;28;20537;-72
2023/04/27 01:24:43;;;;;;;8.20;4.22;;;;;;;;;;5003678;28;20104;-72
2023/04/27 01:27:10;;;;;;;9.23;3.95;;;;;;;;;;5003888;28;20058;-72
2023/04/27 01:29:36;;;;;;;9.65;3.65;;;;;;;;;;5004238;28;20059;-72
2023/04/27 01:32:03;;;;;;;8.57;4.05;;;;;;;;;;5006801;28;20050;-73
2023/04/27 01:34:30;;;;;;;12.52;3.80;;;;;;;;;;5004575;28;20058;-73
2023/04/27 01:36:56;;;;;;;8.40;3.58;;;;;;;;;;5005075;28;20058;-73
2023/04/27 01:39:23;;;;;;;7.75;3.88;;;;;;;;;;5004630;28;20054;-72
2023/04/27 01:41:49;;;;;;;9.70;3.35;;;;;;;;;;5004225;28;20082;-73
2023/04/27 01:44:16;;;;;;;8.05;3.50;;;;;;;;;;5004165;28;20051;-73
2023/04/27 01:46:42;;;;;;;8.63;3.22;;;;;;;;;;5003154;28;20085;-73
2023/04/27 01:49:08;;;;;;;8.65;3.45;;;;;;;;;;5001867;28;20165;-73
2023/04/27 01:51:35;;;;;;;7.97;3.45;;;;;;;;;;5005196;28;20077;-73
2023/04/27 01:54:01;;;;;;;7.10;3.45;;;;;;;;;;5006973;28;21919;-73
2023/04/27 01:56:28;;;;;;;8.32;3.40;;;;;;;;;;5003138;28;20058;-73
2023/04/27 01:58:54;;;;;;;7.00;4.00;;;;;;;;;;5004465;28;20054;-73
2023/04/27 02:01:21;;;;;;;8.13;4.00;;;;;;;;;;5003051;28;20058;-72
2023/04/27 02:03:48;;;;;;;8.45;4.00;;;;;;;;;;5003024;28;20065;-73
2023/04/27 02:06:14;;;;;;;8.80;4.43;;;;;;;;;;5003499;28;20083;-73
2023/04/27 02:08:41;;;;;;;8.52;4.47;;;;;;;;;;5002967;28;20058;-73
2023/04/27 02:11:07;;;;;;;8.35;3.90;;;;;;;;;;5003906;28;20061;-73
2023/04/27 02:13:34;;;;;;;10.25;3.90;;;;;;;;;;5003924;28;20153;-73
2023/04/27 02:16:03;;;;;;;8.90;3.60;;;;;;;;;;5002886;28;20063;-73
2023/04/27 02:18:31;;;;;;;9.75;4.57;;;;;;;;;;5003378;28;20054;-73
2023/04/27 02:20:57;;;;;;;12.57;4.22;;;;;;;;;;5003331;28;20065;-73
2023/04/27 02:23:24;;;;;;;9.68;3.92;;;;;;;;;;5003546;28;20469;-73
2023/04/27 02:25:50;;;;;;;14.48;4.65;;;;;;;;;;5003090;28;20078;-73
2023/04/27 02:28:16;;;;;;;12.35;4.13;;;;;;;;;;5002564;28;20058;-73
2023/04/27 02:30:43;;;;;;;9.35;4.10;;;;;;;;;;5002083;28;20055;-73
2023/04/27 02:33:10;;;;;;;7.82;3.40;;;;;;;;;;5001112;28;20403;-73
2023/04/27 02:35:36;;;;;;;7.95;3.55;;;;;;;;;;5003363;28;20062;-73
2023/04/27 02:38:03;;;;;;;9.55;3.80;;;;;;;;;;5005036;28;20679;-74
2023/04/27 02:40:29;;;;;;;8.50;3.72;;;;;;;;;;5005056;28;20050;-73
2023/04/27 02:42:56;;;;;;;13.20;4.03;;;;;;;;;;5004118;28;20634;-73
2023/04/27 02:45:22;;;;;;;10.23;4.50;;;;;;;;;;5004926;28;20058;-73
2023/04/27 02:47:49;;;;;;;9.82;4.32;;;;;;;;;;5003135;28;20054;-72
2023/04/27 02:50:16;;;;;;;10.57;4.82;;;;;;;;;;5004282;28;20496;-73
2023/04/27 02:52:42;;;;;;;11.63;4.63;;;;;;;;;;5003280;28;20234;-73
2023/04/27 02:55:08;;;;;;;8.77;4.22;;;;;;;;;;5005578;28;20050;-73
2023/04/27 02:57:35;;;;;;;9.40;4.75;;;;;;;;;;5003161;28;20054;-72
2023/04/27 03:00:04;;;;;;;10.52;4.53;;;;;;;;;;5003830;28;20156;-73
2023/04/27 03:02:30;;;;;;;10.07;4.15;;;;;;;;;;5003048;28;20109;-73
2023/04/27 03:04:58;;;;;;;10.02;4.57;;;;;;;;;;5002893;28;20361;-73
2023/04/27 03:07:24;;;;;;;10.02;4.05;;;;;;;;;;5002844;28;20054;-73
2023/04/27 03:09:50;;;;;;;12.43;4.80;;;;;;;;;;5003040;28;20058;-72
2023/04/27 03:12:17;;;;;;;10.43;4.40;;;;;;;;;;5002712;28;20049;-72
2023/04/27 03:14:43;;;;;;;9.50;4.18;;;;;;;;;;5003124;28;20061;-73
2023/04/27 03:17:10;;;;;;;8.85;4.70;;;;;;;;;;5005134;28;20050;-73
2023/04/27 03:19:36;;;;;;;15.35;4.50;;;;;;;;;;5006637;28;20053;-73
2023/04/27 03:22:03;;;;;;;10.65;4.20;;;;;;;;;;5006546;28;20950;-73
2023/04/27 03:24:29;;;;;;;11.48;4.63;;;;;;;;;;5007641;28;20057;-73
2023/04/27 03:26:56;;;;;;;10.80;4.70;;;;;;;;;;5006555;28;20117;-73
2023/04/27 03:29:22;;;;;;;10.48;4.45;;;;;;;;;;5006978;28;20054;-73
2023/04/27 03:31:49;;;;;;;10.52;4.22;;;;;;;;;;5007291;28;20053;-73
2023/04/27 03:34:15;;;;;;;10.32;4.18;;;;;;;;;;5006985;28;20057;-73
2023/04/27 03:36:42;;;;;;;12.23;4.47;;;;;;;;;;5005855;28;20097;-72
2023/04/27 03:39:08;;;;;;;9.43;4.90;;;;;;;;;;5007043;28;20084;-73
2023/04/27 03:41:34;;;;;;;12.45;4.45;;;;;;;;;;5007310;28;20560;-72
2023/04/27 03:44:01;;;;;;;8.73;3.90;;;;;;;;;;5005819;28;20057;-73
2023/04/27 03:46:27;;;;;;;10.38;4.30;;;;;;;;;;5007265;28;20058;-72
2023/04/27 03:48:54;;;;;;;11.57;4.38;;;;;;;;;;5006987;28;20050;-73
2023/04/27 03:51:20;;;;;;;9.70;4.50;;;;;;;;;;5009048;28;20058;-72
2023/04/27 03:53:47;;;;;;;8.63;4.10;;;;;;;;;;5006460;28;20057;-72
2023/04/27 03:56:13;;;;;;;9.43;4.43;;;;;;;;;;5008591;28;20117;-72
2023/04/27 03:58:40;;;;;;;11.35;4.95;;;;;;;;;;5006282;28;20146;-72
2023/04/27 04:01:08;;;;;;;10.18;4.85;;;;;;;;;;5007437;28;20057;-72
2023/04/27 04:03:35;;;;;;;8.70;4.65;;;;;;;;;;5006752;28;20054;-72
2023/04/27 04:06:05;;;;;;;12.35;4.53;;;;;;;;;;5007490;28;20081;-72
2023/04/27 04:08:33;;;;;;;10.30;4.95;;;;;;;;;;5006271;28;20078;-72
2023/04/27 04:10:59;;;;;;;13.73;5.50;;;;;;;;;;5006064;28;20050;-72
2023/04/27 04:13:26;;;;;;;11.45;5.13;;;;;;;;;;5007187;28;20064;-72
2023/04/27 04:16:05;;;;;;;13.93;4.75;;;;;;;;;;5005473;28;20050;-72
2023/04/27 04:18:32;;;;;;;11.98;4.80;;;;;;;;;;5005145;28;20066;-72
2023/04/27 04:20:59;;;;;;;10.02;4.40;;;;;;;;;;5009193;28;20054;-72
2023/04/27 04:23:26;;;;;;;11.32;4.97;;;;;;;;;;5005346;28;20054;-72
2023/04/27 04:25:55;;;;;;;12.43;5.57;;;;;;;;;;5005913;28;20177;-73
2023/04/27 04:28:22;;;;;;;10.35;4.88;;;;;;;;;;5007014;28;20069;-72
2023/04/27 04:30:48;;;;;;;9.43;4.78;;;;;;;;;;5005269;28;20061;-72
2023/04/27 04:33:16;;;;;;;11.82;4.88;;;;;;;;;;5005268;28;20058;-73
2023/04/27 04:35:42;;;;;;;10.15;4.43;;;;;;;;;;5005893;28;20132;-72
2023/04/27 04:38:09;;;;;;;10.48;5.00;;;;;;;;;;5006093;28;20054;-73
2023/04/27 04:40:39;;;;;;;11.23;4.97;;;;;;;;;;5005197;28;20062;-72
2023/04/27 04:43:06;;;;;;;12.15;5.00;;;;;;;;;;5006926;28;20555;-72
2023/04/27 04:45:32;;;;;;;10.20;5.07;;;;;;;;;;5007083;28;20086;-72
2023/04/27 04:48:00;;;;;;;16.08;5.68;;;;;;;;;;5005146;28;20054;-71
2023/04/27 04:50:26;;;;;;;9.02;5.03;;;;;;;;;;5005604;28;20988;-72
2023/04/27 04:52:53;;;;;;;12.15;4.97;;;;;;;;;;5005369;28;20065;-72
2023/04/27 04:55:19;;;;;;;10.95;4.70;;;;;;;;;;5006091;28;20061;-72
2023/04/27 04:57:45;;;;;;;13.75;5.43;;;;;;;;;;5004263;28;20057;-72
2023/04/27 05:00:15;;;;;;;12.63;5.53;;;;;;;;;;5006829;28;20109;-72
2023/04/27 05:02:41;;;;;;;15.43;5.00;;;;;;;;;;5004733;28;20056;-72
2023/04/27 05:05:08;;;;;;;13.55;5.35;;;;;;;;;;5020637;28;20513;-72
2023/04/27 05:07:35;;;;;;;12.98;5.20;;;;;;;;;;5005756;28;20062;-72
2023/04/27 05:10:01;;;;;;;13.50;5.45;;;;;;;;;;5005392;28;20057;-72
2023/04/27 05:12:27;;;;;;;14.70;4.40;;;;;;;;;;5006144;28;20828;-72
2023/04/27 05:14:54;;;;;;;11.57;4.63;;;;;;;;;;5005225;28;20054;-72
2023/04/27 05:17:20;;;;;;;10.65;5.18;;;;;;;;;;5007649;28;20058;-72
2023/04/27 05:19:46;;;;;;;9.93;4.50;;;;;;;;;;5004841;28;21294;-72
2023/04/27 05:22:13;;;;;;;10.88;4.85;;;;;;;;;;5003818;28;20197;-72
2023/04/27 05:24:39;;;;;;;16.00;5.13;;;;;;;;;;5006385;28;20058;-72
2023/04/27 05:27:06;;;;;;;10.95;5.38;;;;;;;;;;5005127;28;20058;-73
2023/04/27 05:29:32;;;;;;;15.27;6.57;;;;;;;;;;5020359;28;20055;-72
2023/04/27 05:31:59;;;;;;;11.90;5.60;;;;;;;;;;5004622;28;21935;-72
2023/04/27 05:34:25;;;;;;;12.48;5.78;;;;;;;;;;5018106;28;20156;-72
2023/04/27 05:36:52;;;;;;;12.27;4.72;;;;;;;;;;5005629;28;21160;-73
2023/04/27 05:39:18;;;;;;;11.52;5.20;;;;;;;;;;5003180;28;20170;-72
2023/04/27 05:41:44;;;;;;;12.95;5.65;;;;;;;;;;5004112;28;20987;-73
2023/04/27 05:44:11;;;;;;;13.75;5.03;;;;;;;;;;5004463;28;20500;-72
2023/04/27 05:46:37;;;;;;;11.65;5.40;;;;;;;;;;5002674;28;20064;-72
2023/04/27 05:49:04;;;;;;;11.48;6.00;;;;;;;;;;5004273;28;22303;-72
2023/04/27 05:51:33;;;;;;;13.10;5.90;;;;;;;;;;5004003;28;20054;-73
2023/04/27 05:54:02;;;;;;;12.27;6.13;;;;;;;;;;5004798;28;20066;-72
2023/04/27 05:56:29;;;;;;;11.13;5.25;;;;;;;;;;5003165;28;20062;-72
2023/04/27 05:58:55;;;;;;;11.52;5.47;;;;;;;;;;5003801;28;20056;-73
2023/04/27 06:01:22;;;;;;;12.48;5.72;;;;;;;;;;5005071;28;20055;-72
2023/04/27 06:03:48;;;;;;;14.65;5.55;;;;;;;;;;5003963;28;20544;-73
2023/04/27 06:06:15;;;;;;;11.68;5.68;;;;;;;;;;5004485;28;20054;-72
2023/04/27 06:08:41;;;;;;;19.15;5.93;;;;;;;;;;5003439;28;20050;-72
2023/04/27 06:11:07;;;;;;;15.88;6.15;;;;;;;;;;5004323;28;20803;-72
2023/04/27 06:13:34;;;;;;;11.10;5.45;;;;;;;;;;5003269;28;20065;-72
2023/04/27 06:16:00;;;;;;;12.50;5.57;;;;;;;;;;5018505;28;20124;-73
2023/04/27 06:18:27;;;;;;;13.10;5.20;;;;;;;;;;5003739;28;20062;-73
2023/04/27 06:20:57;;;;;;;10.40;4.97;;;;;;;;;;5004404;28;20065;-73
2023/04/27 06:23:23;;;;;;;14.05;5.68;;;;;;;;;;5004768;28;20057;-72
2023/04/27 06:25:49;;;;;;;12.35;5.00;;;;;;;;;;5001970;28;20081;-73
2023/04/27 06:28:16;;;;;;;10.98;5.55;;;;;;;;;;5003520;28;20593;-72
2023/04/27 06:30:43;;;;;;;11.63;5.85;;;;;;;;;;5006853;28;20059;-73
2023/04/27 06:33:09;;;;;;;14.88;6.05;;;;;;;;;;5004319;28;20058;-73
2023/04/27 06:35:35;;;;;;;13.23;5.25;;;;;;;;;;5003709;28;20047;-72
2023/04/27 06:38:02;;;;;;;13.20;5.35;;;;;;;;;;5004371;28;20099;-73
2023/04/27 06:40:30;;;;;;;11.07;5.40;;;;;;;;;;5004121;28;20098;-73
2023/04/27 06:42:56;;;;;;;10.95;4.90;;;;;;;;;;5001133;28;20061;-72
2023/04/27 06:45:23;;;;;;;11.43;5.10;;;;;;;;;;5002577;28;20059;-73
2023/04/27 06:47:49;;;;;;;10.07;4.57;;;;;;;;;;5003876;28;20056;-72
2023/04/27 06:50:16;;;;;;;10.65;4.78;;;;;;;;;;5002368;28;20050;-73
2023/04/27 06:52:42;;;;;;;9.90;4.47;;;;;;;;;;5003700;28;20595;-73
2023/04/27 06:55:09;;;;;;;12.18;5.47;;;;;;;;;;5007999;28;20089;-73
2023/04/27 06:57:35;;;;;;;9.05;4.28;;;;;;;;;;5009047;28;20061;-73
2023/04/27 07:00:03;;;;;;;9.35;4.80;;;;;;;;;;5008771;28;20054;-73
2023/04/27 07:02:30;;;;;;;9.15;4.30;;;;;;;;;;5006656;28;20062;-73
2023/04/27 07:04:56;;;;;;;10.80;4.57;;;;;;;;;;5007365;28;20054;-73
2023/04/27 07:07:23;;;;;;;12.20;5.15;;;;;;;;;;5006092;28;20156;-73
2023/04/27 07:09:49;;;;;;;10.48;3.70;;;;;;;;;;5006070;28;20058;-73
2023/04/27 07:12:16;;;;;;;12.35;3.33;;;;;;;;;;5006087;28;20065;-73
2023/04/27 07:14:42;;;;;;;9.38;4.18;;;;;;;;;;5006150;28;20090;-73
2023/04/27 07:17:08;;;;;;;9.13;3.10;;;;;;;;;;5005218;28;20054;-73
2023/04/27 07:19:35;;;;;;;9.32;3.80;;;;;;;;;;5006034;28;20117;-73
2023/04/27 07:22:02;;;;;;;7.93;3.00;;;;;;;;;;5006304;28;20058;-73
2023/04/27 07:24:29;;;;;;;6.50;3.03;;;;;;;;;;5005386;28;20797;-73
2023/04/27 07:26:58;;;;;;;7.45;2.90;;;;;;;;;;5005586;28;20046;-73
2023/04/27 07:29:26;;;;;;;6.47;3.17;;;;;;;;;;5007543;28;20153;-73
2023/04/27 07:31:54;;;;;;;5.43;2.60;;;;;;;;;;5023155;28;20065;-74
2023/04/27 07:34:21;;;;;;;6.65;2.97;;;;;;;;;;5020849;28;20136;-74
2023/04/27 07:36:47;;;;;;;5.57;2.63;;;;;;;;;;5006984;28;20105;-74
2023/04/27 07:39:13;;;;;;;5.68;2.42;;;;;;;;;;5006395;28;20112;-74
2023/04/27 07:41:40;;;;;;;6.47;2.95;;;;;;;;;;5007434;28;20053;-74
2023/04/27 07:44:07;;;;;;;17.30;4.18;;;;;;;;;;5006025;28;20062;-73
2023/04/27 07:46:33;;;;;;;9.43;3.13;;;;;;;;;;5021559;28;20074;-73
2023/04/27 07:48:59;;;;;;;8.10;3.33;;;;;;;;;;5005656;28;20054;-73
2023/04/27 07:51:27;;;;;;;7.05;3.17;;;;;;;;;;5006726;28;20112;-74
2023/04/27 07:53:54;;;;;;;10.18;4.28;;;;;;;;;;5023435;28;20101;-74
2023/04/27 07:56:21;;;;;;;5.50;2.70;;;;;;;;;;5005482;28;20058;-74
2023/04/27 07:58:47;;;;;;;9.52;3.10;;;;;;;;;;5005797;28;20058;-74
2023/04/27 08:01:13;;;;;;;7.78;2.72;;;;;;;;;;5009671;28;21370;-74
2023/04/27 08:03:40;;;;;;;7.18;2.90;;;;;;;;;;5004284;28;20058;-74
2023/04/27 08:06:06;;;;;;;7.15;2.90;;;;;;;;;;5004865;28;20521;-74
2023/04/27 08:08:33;;;;;;;6.80;2.90;;;;;;;;;;5005071;28;20505;-74
2023/04/27 08:11:00;;;;;;;8.63;3.45;;;;;;;;;;5017790;28;20173;-74
2023/04/27 08:13:26;;;;;;;12.02;3.33;;;;;;;;;;5007370;28;20057;-74
2023/04/27 08:15:58;;;;;;;5.57;2.53;;;;;;;;;;5009132;28;20054;-74
2023/04/27 08:18:26;;;;;;;8.07;2.90;;;;;;;;;;5005731;28;20639;-74
2023/04/27 08:20:52;;;;;;;5.78;2.40;;;;;;;;;;5010783;28;20169;-74
2023/04/27 08:23:19;;;;;;;7.95;2.22;;;;;;;;;;5024534;28;20145;-74
2023/04/27 08:25:46;;;;;;;7.07;2.33;;;;;;;;;;5022412;28;20057;-73
2023/04/27 08:28:13;;;;;;;6.88;2.35;;;;;;;;;;5010030;28;20065;-74
2023/04/27 08:30:43;;;;;;;6.20;2.50;;;;;;;;;;5022974;28;20061;-73
2023/04/27 08:33:09;;;;;;;7.13;2.42;;;;;;;;;;5026775;28;20622;-74
2023/04/27 08:35:36;;;;;;;4.53;1.95;;;;;;;;;;5015360;28;20064;-73
2023/04/27 08:38:02;;;;;;;5.15;2.20;;;;;;;;;;5008871;28;20066;-74
2023/04/27 08:40:28;;;;;;;4.20;1.83;;;;;;;;;;5010192;28;20879;-74
2023/04/27 08:42:56;;;;;;;8.25;2.30;;;;;;;;;;5002954;28;20185;-74
2023/04/27 08:45:23;;;;;;;5.38;2.20;;;;;;;;;;5004160;28;20520;-74
2023/04/27 08:47:50;;;;;;;3.92;2.10;;;;;;;;;;5006439;28;20060;-73
2023/04/27 08:50:16;;;;;;;5.03;1.80;;;;;;;;;;5005793;28;20751;-74
2023/04/27 08:52:43;;;;;;;4.53;1.77;;;;;;;;;;5003792;28;20058;-74
2023/04/27 08:55:11;;;;;;;6.20;2.10;;;;;;;;;;5003667;28;20074;-74
2023/04/27 08:57:40;;;;;;;3.80;1.70;;;;;;;;;;5003770;28;20050;-74
2023/04/27 09:00:15;;;;;;;4.05;1.70;;;;;;;;;;5008911;28;20047;-74
2023/04/27 09:02:45;;;;;;;4.97;1.73;;;;;;;;;;5004739;28;20570;-74
2023/04/27 09:05:19;;;;;;;4.38;2.00;;;;;;;;;;5006606;28;20050;-74
2023/04/27 09:07:55;;;;;;;5.90;1.92;;;;;;;;;;5003509;28;20204;-74
2023/04/27 09:10:22;;;;;;;5.82;1.92;;;;;;;;;;5006984;28;20064;-74
2023/04/27 09:12:55;;;;;;;4.07;1.90;;;;;;;;;;5004401;28;20062;-74
2023/04/27 09:15:22;;;;;;;3.38;1.80;;;;;;;;;;5009006;28;20101;-74
2023/04/27 09:17:53;;;;;;;5.60;1.88;;;;;;;;;;5007871;28;20058;-74
2023/04/27 09:20:19;;;;;;;;;;;;;;;;;;5006342;28;20787;-75
2023/04/27 09:22:47;;;;;;;6.03;1.85;;;;;;;;;;5004918;28;45321;-74
2023/04/27 09:25:23;;;;;;;5.18;2.25;;;;;;;;;;5008197;28;20054;-74
2023/04/27 09:27:49;;;;;;;4.65;1.92;;;;;;;;;;5005681;28;20979;-74
2023/04/27 09:30:16;;;;;;;4.55;2.10;;;;;;;;;;5006914;28;20513;-74
2023/04/27 09:32:50;;;;;;;6.90;2.10;;;;;;;;;;5005739;28;20541;-74
2023/04/27 09:35:28;;;;;;;4.68;1.90;;;;;;;;;;5005627;28;20121;-74
2023/04/27 09:37:54;;;;;;;4.32;2.30;;;;;;;;;;5004880;28;20058;-74
2023/04/27 09:40:25;;;;;;;6.65;2.53;;;;;;;;;;5007055;28;20058;-74
2023/04/27 09:42:51;;;;;;;7.20;2.65;;;;;;;;;;5005402;28;20931;-74
2023/04/27 09:45:21;;;;;;;5.80;2.55;;;;;;;;;;5004626;28;20058;-74
2023/04/27 09:47:47;;;;;;;7.13;2.50;;;;;;;;;;5008008;28;20509;-74
2023/04/27 09:50:13;;;;;;;7.97;2.75;;;;;;;;;;5007068;28;20058;-74
2023/04/27 09:52:40;;;;;;;5.43;2.67;;;;;;;;;;5003075;28;20062;-74
2023/04/27 09:55:09;;;;;;;5.88;2.72;;;;;;;;;;5006610;28;20492;-74
2023/04/27 09:57:53;;;;;;;6.88;2.90;;;;;;;;;;5005996;28;20072;-74
2023/04/27 10:00:32;;;;;;;5.32;2.47;;;;;;;;;;5005475;28;20053;-74
2023/04/27 10:03:06;;;;;;;8.30;2.80;;;;;;;;;;5006115;28;20076;-74
2023/04/27 10:05:51;;;;;;;4.28;2.58;;;;;;;;;;5006308;28;20064;-74
2023/04/27 10:08:18;;;;;;;7.57;2.85;;;;;;;;;;5005705;28;20636;-74
2023/04/27 10:10:48;;;;;;;8.55;4.10;;;;;;;;;;5005175;28;20054;-74
2023/04/27 10:13:22;;;;;;;7.50;2.85;;;;;;;;;;5004208;28;20132;-74
2023/04/27 10:15:48;;;;;;;9.98;3.50;;;;;;;;;;5007598;28;20141;-74
2023/04/27 10:18:24;;;;;;;8.35;3.03;;;;;;;;;;5006254;28;20064;-74
2023/04/27 10:20:51;;;;;;;5.90;2.88;;;;;;;;;;5005206;28;20615;-74
2023/04/27 10:23:21;;;;;;;5.75;2.90;;;;;;;;;;5005280;28;21187;-74
2023/04/27 10:25:47;;;;;;;6.38;3.10;;;;;;;;;;5005733;28;20062;-74
2023/04/27 10:28:15;;;;;;;6.68;2.75;;;;;;;;;;5009350;28;20054;-74
2023/04/27 10:30:44;;;;;;;6.90;2.92;;;;;;;;;;5009042;28;20097;-74
2023/04/27 10:33:14;;;;;;;9.03;4.87;;;;;;;;;;5009911;28;20197;-74
2023/04/27 10:35:42;;;;;;;7.00;2.85;;;;;;;;;;5009679;28;20057;-74
2023/04/27 10:38:08;;;;;;;5.57;2.67;;;;;;;;;;5009632;28;20054;-74
2023/04/27 10:40:35;;;;;;;5.82;2.65;;;;;;;;;;5008390;28;20133;-74
2023/04/27 10:43:12;;;;;;;4.88;2.88;;;;;;;;;;5015742;28;20089;-73
2023/04/27 10:45:39;;;;;;;8.13;2.92;;;;;;;;;;5012298;28;20153;-73
2023/04/27 10:48:06;;;;;;;5.28;2.88;;;;;;;;;;5021817;28;20093;-73
2023/04/27 10:50:32;;;;;;;6.80;3.15;;;;;;;;;;5030638;28;20092;-74
2023/04/27 10:53:03;;;;;;;5.88;3.10;;;;;;;;;;5025436;28;20054;-73
2023/04/27 10:55:33;;;;;;;7.43;3.53;;;;;;;;;;5026627;28;20049;-73
2023/04/27 10:58:00;;;;;;;7.43;3.27;;;;;;;;;;5020684;28;20105;-73
2023/04/27 11:00:28;;;;;;;5.97;3.20;;;;;;;;;;5026100;28;20141;-73
2023/04/27 11:02:56;;;;;;;5.43;2.78;;;;;;;;;;5024710;28;20060;-73
2023/04/27 11:05:26;;;;;;;7.50;3.13;;;;;;;;;;5019866;28;20117;-73
2023/04/27 11:08:02;;;;;;;6.15;3.00;;;;;;;;;;5043679;28;20524;-73
2023/04/27 11:10:29;;;;;;;6.32;3.33;;;;;;;;;;5029789;28;20690;-74
2023/04/27 11:12:55;;;;;;;5.70;3.10;;;;;;;;;;5019676;28;20054;-73
2023/04/27 11:15:22;;;;;;;6.43;3.00;;;;;;;;;;5018645;28;20488;-73
2023/04/27 11:17:48;;;;;;;8.13;3.10;;;;;;;;;;5018259;28;20057;-73
2023/04/27 11:20:23;;;;;;;4.80;2.78;;;;;;;;;;5009472;28;20112;-73
2023/04/27 11:22:49;;;;;;;6.03;2.95;;;;;;;;;;5010602;28;20064;-73
2023/04/27 11:25:15;;;;;;;7.95;3.08;;;;;;;;;;5042907;28;20104;-73
2023/04/27 11:27:42;;;;;;;15.80;3.00;;;;;;;;;;5023153;28;20056;-73
2023/04/27 11:30:18;;;;;;;6.82;2.92;;;;;;;;;;5022386;28;20058;-73
2023/04/27 11:32:45;;;;;;;7.35;3.67;;;;;;;;;;5015304;28;20125;-73
2023/04/27 11:35:12;;;;;;;6.47;3.45;;;;;;;;;;5021577;28;20157;-73
2023/04/27 11:37:38;;;;;;;6.60;3.38;;;;;;;;;;5020727;28;20524;-73
2023/04/27 11:40:05;;;;;;;5.18;2.90;;;;;;;;;;5027423;28;20053;-73
2023/04/27 11:42:31;;;;;;;6.70;3.45;;;;;;;;;;5020009;28;20177;-73
2023/04/27 11:44:59;;;;;;;6.18;3.53;;;;;;;;;;5021855;28;20057;-73
2023/04/27 11:47:26;;;;;;;7.22;3.47;;;;;;;;;;5014504;28;20054;-73
2023/04/27 11:49:54;;;;;;;7.72;3.50;;;;;;;;;;5012703;28;20066;-73
2023/04/27 11:52:21;;;;;;;9.07;3.47;;;;;;;;;;5009577;28;20600;-74
2023/04/27 11:54:48;;;;;;;7.40;3.40;;;;;;;;;;5017052;28;20054;-74
2023/04/27 11:57:15;;;;;;;6.18;3.15;;;;;;;;;;5026850;28;20519;-74
2023/04/27 11:59:41;;;;;;;7.32;3.30;;;;;;;;;;5012517;28;20108;-74
2023/04/27 12:02:08;;;;;;;6.72;4.03;;;;;;;;;;5007738;28;20085;-74
2023/04/27 12:04:35;;;;;;;7.18;3.45;;;;;;;;;;5008229;28;20054;-74
2023/04/27 12:07:02;;;;;;;6.13;3.60;;;;;;;;;;5009482;28;20053;-73
2023/04/27 12:09:29;;;;;;;7.22;3.72;;;;;;;;;;5007040;28;20085;-74
2023/04/27 12:11:55;;;;;;;6.07;3.88;;;;;;;;;;5009222;28;20165;-74
2023/04/27 12:14:23;;;;;;;6.45;3.70;;;;;;;;;;5018427;28;20127;-74
2023/04/27 12:16:50;;;;;;;7.40;3.78;;;;;;;;;;5018704;28;20080;-74
2023/04/27 12:19:16;;;;;;;6.40;3.40;;;;;;;;;;5013024;28;20073;-74
2023/04/27 12:21:43;;;;;;;8.50;3.88;;;;;;;;;;5018426;28;20054;-75
2023/04/27 12:24:09;;;;;;;8.90;4.28;;;;;;;;;;5018217;28;20563;-74
2023/04/27 12:26:36;;;;;;;6.53;3.75;;;;;;;;;;5012099;28;20082;-74
2023/04/27 12:29:03;;;;;;;7.38;3.88;;;;;;;;;;5019279;28;20054;-74
2023/04/27 12:31:30;;;;;;;8.07;3.83;;;;;;;;;;5014395;28;20085;-74
2023/04/27 12:33:56;;;;;;;10.55;3.75;;;;;;;;;;5021433;28;20054;-74
2023/04/27 12:36:22;;;;;;;6.20;3.78;;;;;;;;;;5011413;28;20489;-74
2023/04/27 12:38:49;;;;;;;7.40;4.10;;;;;;;;;;5019184;28;20050;-74
2023/04/27 12:41:15;;;;;;;6.13;3.90;;;;;;;;;;5008906;28;20962;-74
2023/04/27 12:43:42;;;;;;;10.20;4.30;;;;;;;;;;5014992;28;20053;-74
2023/04/27 12:46:08;;;;;;;6.50;3.88;;;;;;;;;;5024802;28;20089;-74
2023/04/27 12:48:35;;;;;;;6.00;3.80;;;;;;;;;;5008037;28;21010;-74
2023/04/27 12:51:02;;;;;;;10.35;4.10;;;;;;;;;;5016757;28;20128;-74
2023/04/27 12:53:32;;;;;;;9.23;3.83;;;;;;;;;;5007112;28;20129;-74
2023/04/27 12:56:00;;;;;;;7.93;4.20;;;;;;;;;;5021568;28;20129;-74
2023/04/27 12:58:27;;;;;;;7.00;3.88;;;;;;;;;;5012037;28;20050;-74
2023/04/27 13:00:56;;;;;;;8.05;4.15;;;;;;;;;;5019864;28;20145;-76
2023/04/27 13:03:23;;;;;;;8.73;4.60;;;;;;;;;;5021487;28;20112;-77
2023/04/27 13:05:50;;;;;;;7.10;4.00;;;;;;;;;;5035291;28;20580;-78
2023/04/27 13:08:16;;;;;;;8.10;3.97;;;;;;;;;;5021037;28;20054;-77
2023/04/27 13:10:43;;;;;;;6.03;3.50;;;;;;;;;;5022710;28;20986;-77
2023/04/27 13:13:09;;;;;;;7.63;3.55;;;;;;;;;;5015762;28;20577;-77
2023/04/27 13:15:36;;;;;;;7.05;4.07;;;;;;;;;;5016392;28;20149;-77
2023/04/27 13:18:05;;;;;;;7.32;4.15;;;;;;;;;;5016852;28;20054;-76
2023/04/27 13:20:31;;;;;;;6.95;3.88;;;;;;;;;;5023870;28;20050;-76
2023/04/27 13:22:58;;;;;;;9.18;4.13;;;;;;;;;;5035643;28;20080;-76
2023/04/27 13:25:24;;;;;;;5.75;3.80;;;;;;;;;;5011874;28;20054;-76
2023/04/27 13:27:51;;;;;;;11.30;4.38;;;;;;;;;;5013805;28;20408;-76
2023/04/27 13:30:17;;;;;;;7.45;3.97;;;;;;;;;;5017335;28;20496;-77
2023/04/27 13:32:43;;;;;;;7.90;4.35;;;;;;;;;;5023287;28;20057;-76
2023/04/27 13:35:13;;;;;;;7.93;4.22;;;;;;;;;;5022973;28;20065;-76
2023/04/27 13:37:43;;;;;;;6.68;4.15;;;;;;;;;;5018935;28;20140;-77
2023/04/27 13:40:10;;;;;;;8.60;4.30;;;;;;;;;;5014843;28;20050;-77
2023/04/27 13:42:37;;;;;;;8.18;4.75;;;;;;;;;;5018878;28;20173;-77
2023/04/27 13:45:03;;;;;;;6.78;3.85;;;;;;;;;;5010644;28;20050;-77
2023/04/27 13:47:35;;;;;;;6.82;4.05;;;;;;;;;;5018807;28;20049;-76
2023/04/27 13:50:06;;;;;;;9.73;4.47;;;;;;;;;;5020512;28;20461;-77
2023/04/27 13:52:32;;;;;;;;;;;;;;;;;;5015670;28;20062;-77
2023/04/27 13:54:59;;;;;;;8.32;4.30;;;;;;;;;;5009093;28;44172;-77
2023/04/27 13:57:25;;;;;;;8.23;4.80;;;;;;;;;;5012181;28;20528;-77
2023/04/27 13:59:52;;;;;;;10.25;4.18;;;;;;;;;;5010221;28;20050;-79
2023/04/27 14:02:18;;;;;;;9.05;4.15;;;;;;;;;;5018077;28;20519;-77
2023/04/27 14:04:45;;;;;;;8.73;3.50;;;;;;;;;;5015505;28;20134;-77
2023/04/27 14:07:11;;;;;;;6.78;3.58;;;;;;;;;;5003308;28;20395;-77
2023/04/27 14:09:37;;;;;;;8.07;3.95;;;;;;;;;;5014798;28;20065;-77
2023/04/27 14:12:04;;;;;;;9.20;3.83;;;;;;;;;;5016357;28;20062;-77
2023/04/27 14:14:30;;;;;;;8.60;4.00;;;;;;;;;;5016636;28;20153;-76
2023/04/27 14:16:57;;;;;;;10.27;4.15;;;;;;;;;;5002825;28;20137;-77
2023/04/27 14:19:24;;;;;;;7.72;4.45;;;;;;;;;;5003965;28;20054;-77
2023/04/27 14:21:50;;;;;;;7.55;3.63;;;;;;;;;;5003269;28;20516;-77
2023/04/27 14:24:17;;;;;;;6.60;4.20;;;;;;;;;;5014056;28;20075;-77
2023/04/27 14:26:45;;;;;;;6.03;3.58;;;;;;;;;;5013054;28;20051;-77
2023/04/27 14:29:12;;;;;;;10.38;4.00;;;;;;;;;;5013529;28;20068;-77
2023/04/27 14:31:38;;;;;;;6.25;4.10;;;;;;;;;;5018974;28;20057;-77
2023/04/27 14:34:06;;;;;;;5.97;3.60;;;;;;;;;;5017300;28;20136;-76
2023/04/27 14:36:32;;;;;;;8.27;4.07;;;;;;;;;;5020719;28;20084;-76
2023/04/27 14:38:59;;;;;;;7.13;3.70;;;;;;;;;;5015582;28;20058;-76